Archival Weather

Heathrow

London, United Kingdom (EGLL)

Report from: Monday, July 18, 2022 10:20 PM BST
Current time: Tuesday, June 18, 2024 1:09 PM BST

Current weather – Weather history – Daily summaries
Weather forecast

Temperature27.0°C (80.6°F)
Heat index26.8°C (80.3°F)
Dew point9.0°C (48.2°F)
Winds 3 kts (1.5 m/s, 3.5 mph) Vrb
Winds variableWinds variable from East (100°) to West (270°)
Visibility6.2 mi. (10 km)
Clouds Sky clear
Altimeter30.03 in.Hg (1017 mB)
Relative humidity32 %
Density altitude1,424 ft. (434 m)
Remarks Fully automated report
No clouds detected
No significant changes expected in the next two hours
Flight conditions Visual Meteorological Conditions
Raw dataEGLL 182120Z AUTO 15003KT 100V270 9999 NCD 27/09 Q1017 NOSIG
An error has occurred. This application may no longer respond until reloaded. Reload 🗙